Time;durP1;ratioP1;P1;durP2;ratioP2;P2;SDS_P1;SDS_P2;PMS_P1;PMS_P2;Temp;Humidity;BMP_temperature;BMP_pressure;BME280_temperature;BME280_humidity;BME280_pressure;Samples;Min_cycle;Max_cycle;Signal;HPM_P1;HPM_P2
2021/12/05 00:22:47;;;;;;;21.90;15.33;;;1.60;99.90;;;;;;5031699;28;20293;-72
2021/12/05 00:25:22;;;;;;;20.97;15.47;;;1.60;99.90;;;;;;5059207;28;20679;-73
2021/12/05 00:27:50;;;;;;;21.50;15.87;;;1.60;99.90;;;;;;5027173;28;20210;-72
2021/12/05 00:33:41;;;;;;;22.33;15.03;;;1.50;99.90;;;;;;5029075;28;20256;-73
2021/12/05 00:41:54;;;;;;;21.33;16.60;;;1.40;99.90;;;;;;5029978;28;20214;-71
2021/12/05 00:45:02;;;;;;;22.00;15.20;;;1.40;99.90;;;;;;5027603;28;20206;-69
2021/12/05 00:47:33;;;;;;;19.70;16.37;;;1.40;99.90;;;;;;5032286;28;20727;-70
2021/12/05 00:50:20;;;;;;;23.57;15.73;;;1.40;99.90;;;;;;5037162;28;20205;-71
2021/12/05 00:55:48;;;;;;;22.13;14.87;;;1.40;99.90;;;;;;5044676;28;20204;-70
2021/12/05 01:01:21;;;;;;;22.57;15.63;;;1.20;99.90;;;;;;5033277;28;20212;-70
2021/12/05 01:06:59;;;;;;;19.63;15.50;;;1.20;99.90;;;;;;5025369;28;20583;-71
2021/12/05 01:12:08;;;;;;;21.43;15.30;;;1.20;99.90;;;;;;5040015;28;20206;-71
2021/12/05 01:14:51;;;;;;;21.13;15.13;;;1.20;99.90;;;;;;5044477;28;20263;-70
2021/12/05 01:17:20;;;;;;;21.60;16.87;;;1.20;99.90;;;;;;5025477;28;20203;-62
2021/12/05 01:19:47;;;;;;;20.43;15.13;;;1.30;99.90;;;;;;5058255;28;20197;-63
2021/12/05 01:22:15;;;;;;;23.50;16.03;;;1.30;99.90;;;;;;5035259;28;20545;-62
2021/12/05 01:24:54;;;;;;;22.33;15.00;;;1.20;99.90;;;;;;5036530;28;20728;-62
2021/12/05 01:27:44;;;;;;;20.63;15.13;;;1.20;99.90;;;;;;5032142;28;20213;-62
2021/12/05 01:30:28;;;;;;;20.63;16.27;;;1.20;99.90;;;;;;5028827;28;20193;-64
2021/12/05 01:33:13;;;;;;;18.23;14.47;;;1.30;99.90;;;;;;5032327;28;20183;-63
2021/12/05 01:38:33;;;;;;;21.63;15.97;;;1.30;99.90;;;;;;5031753;28;20271;-72
2021/12/05 01:41:32;;;;;;;22.40;15.57;;;1.20;99.90;;;;;;5043671;28;20229;-64
2021/12/05 01:49:52;;;;;;;22.50;15.67;;;1.20;99.90;;;;;;5032780;28;20192;-63
2021/12/05 01:55:32;;;;;;;23.37;16.53;;;1.20;99.90;;;;;;5027026;28;20221;-68
2021/12/05 01:58:09;;;;;;;20.57;15.33;;;1.30;99.90;;;;;;5035716;28;20246;-63
2021/12/05 02:12:34;;;;;;;20.47;15.57;;;1.40;99.90;;;;;;5029573;28;20280;-64
2021/12/05 02:15:22;;;;;;;26.83;17.13;;;1.30;99.90;;;;;;5028809;28;20688;-66
2021/12/05 02:32:14;;;;;;;18.77;14.20;;;1.40;99.90;;;;;;5025374;28;20684;-64
2021/12/05 02:34:49;;;;;;;19.40;15.97;;;1.50;99.90;;;;;;5024894;28;20197;-64
2021/12/05 02:42:39;;;;;;;23.07;17.30;;;1.50;99.90;;;;;;5027543;28;20215;-64
2021/12/05 02:45:07;;;;;;;25.00;16.90;;;1.40;99.90;;;;;;5029530;28;20259;-64
2021/12/05 02:47:34;;;;;;;20.23;15.93;;;1.40;99.90;;;;;;5031056;28;20344;-65
2021/12/05 02:50:04;;;;;;;24.17;18.93;;;1.40;99.90;;;;;;5027388;28;20206;-67
2021/12/05 02:52:34;;;;;;;24.37;16.83;;;1.40;99.90;;;;;;5029252;28;20810;-65
2021/12/05 02:55:10;;;;;;;24.63;19.03;;;1.40;99.90;;;;;;5032135;28;20295;-66
2021/12/05 03:00:14;;;;;;;27.20;18.57;;;1.50;99.90;;;;;;5029907;28;20201;-64
2021/12/05 03:02:43;;;;;;;26.57;17.70;;;1.60;99.90;;;;;;5031278;28;20184;-65
2021/12/05 03:05:11;;;;;;;25.43;20.73;;;1.60;99.90;;;;;;5025825;28;20759;-65
2021/12/05 03:07:40;;;;;;;28.77;18.90;;;1.60;99.90;;;;;;5038207;28;20570;-65
2021/12/05 03:10:08;;;;;;;24.20;18.47;;;1.50;99.90;;;;;;5031985;28;20276;-65
2021/12/05 03:12:35;;;;;;;29.27;20.27;;;1.50;99.90;;;;;;5028704;28;20251;-65
2021/12/05 03:15:07;;;;;;;25.00;18.70;;;1.50;99.90;;;;;;5025488;28;20223;-67
2021/12/05 03:17:33;;;;;;;27.20;19.63;;;1.50;99.90;;;;;;5029359;28;20190;-66
2021/12/05 03:19:58;;;;;;;26.40;20.77;;;1.40;99.90;;;;;;5029165;28;20666;-64
2021/12/05 03:22:24;;;;;;;25.37;19.77;;;1.40;99.90;;;;;;5030273;28;20198;-64
2021/12/05 03:24:50;;;;;;;27.47;21.80;;;1.40;99.90;;;;;;5037907;28;20687;-64
2021/12/05 03:27:15;;;;;;;27.23;20.77;;;1.40;99.90;;;;;;5036830;28;20234;-65
2021/12/05 03:29:41;;;;;;;29.63;20.37;;;1.50;99.90;;;;;;5041641;28;20676;-65
2021/12/05 03:32:07;;;;;;;25.20;20.17;;;1.50;99.90;;;;;;5038318;28;20384;-65
2021/12/05 03:34:33;;;;;;;29.23;21.13;;;1.50;99.90;;;;;;5033849;28;20205;-65
2021/12/05 03:36:59;;;;;;;28.00;21.90;;;1.50;99.90;;;;;;5040479;28;20192;-65
2021/12/05 03:39:27;;;;;;;32.90;20.90;;;1.50;99.90;;;;;;5038776;28;20178;-66
2021/12/05 03:41:54;;;;;;;28.00;20.40;;;1.60;99.90;;;;;;5049123;28;20187;-64
2021/12/05 03:44:23;;;;;;;27.47;21.37;;;1.50;99.90;;;;;;5043743;28;20183;-65
2021/12/05 03:46:50;;;;;;;32.13;23.07;;;1.50;99.90;;;;;;5042750;28;20186;-65
2021/12/05 03:49:16;;;;;;;32.17;23.73;;;1.60;99.90;;;;;;5037318;28;20210;-65
2021/12/05 03:51:47;;;;;;;32.53;22.90;;;1.60;99.90;;;;;;5046275;28;20687;-65
2021/12/05 03:54:13;;;;;;;32.10;22.53;;;1.60;99.90;;;;;;5035948;28;20201;-64
2021/12/05 03:56:40;;;;;;;30.47;21.47;;;1.70;99.90;;;;;;5046765;28;20206;-64
2021/12/05 03:59:08;;;;;;;30.47;20.10;;;1.60;99.90;;;;;;5038033;28;20335;-66
2021/12/05 04:01:35;;;;;;;31.30;21.77;;;1.60;99.90;;;;;;5034995;28;20204;-65
2021/12/05 04:04:01;;;;;;;28.33;20.77;;;1.60;99.90;;;;;;5040355;28;20694;-64
2021/12/05 04:06:27;;;;;;;31.37;22.83;;;1.60;99.90;;;;;;5044667;28;20208;-63
2021/12/05 04:08:56;;;;;;;30.50;21.97;;;1.70;99.90;;;;;;5042184;28;20214;-65
2021/12/05 04:11:29;;;;;;;29.83;22.53;;;1.70;99.90;;;;;;5061290;28;20550;-66
2021/12/05 04:13:56;;;;;;;29.63;22.17;;;1.70;99.90;;;;;;5037061;28;20227;-65
2021/12/05 04:16:22;;;;;;;32.70;23.47;;;1.70;99.90;;;;;;5048867;28;20657;-66
2021/12/05 04:18:48;;;;;;;32.07;21.83;;;1.60;99.90;;;;;;5042187;28;20221;-64
2021/12/05 04:21:16;;;;;;;31.53;21.43;;;1.70;99.90;;;;;;5039946;28;20235;-64
2021/12/05 04:23:44;;;;;;;27.10;20.93;;;1.70;99.90;;;;;;5047912;28;20260;-66
2021/12/05 04:26:09;;;;;;;30.53;20.63;;;1.70;99.90;;;;;;5047199;28;20659;-64
2021/12/05 04:28:36;;;;;;;31.63;22.87;;;1.80;99.90;;;;;;5035416;28;20269;-63
2021/12/05 04:31:03;;;;;;;30.53;21.60;;;1.80;99.90;;;;;;5033050;28;20590;-63
2021/12/05 04:33:28;;;;;;;30.97;21.17;;;1.80;99.90;;;;;;5039278;28;20634;-63
2021/12/05 04:35:54;;;;;;;30.47;21.53;;;1.70;99.90;;;;;;5033625;28;20202;-63
2021/12/05 04:38:20;;;;;;;30.23;22.03;;;1.70;99.90;;;;;;5038545;28;20209;-64
2021/12/05 04:40:48;;;;;;;30.30;20.73;;;1.80;99.90;;;;;;5039736;28;20288;-63
2021/12/05 04:43:13;;;;;;;33.37;21.80;;;1.80;99.90;;;;;;5034837;28;20212;-63
2021/12/05 04:45:39;;;;;;;32.53;22.40;;;1.80;99.90;;;;;;5046027;28;20183;-64
2021/12/05 04:48:07;;;;;;;31.63;21.10;;;1.90;99.90;;;;;;5031745;28;20241;-64
2021/12/05 04:50:32;;;;;;;32.80;22.90;;;1.90;99.90;;;;;;5035132;28;20486;-65
2021/12/05 04:52:58;;;;;;;30.60;22.60;;;1.90;99.90;;;;;;5034223;28;20729;-64
2021/12/05 04:55:24;;;;;;;30.23;23.23;;;2.00;99.90;;;;;;5044458;28;20211;-65
2021/12/05 04:57:50;;;;;;;32.23;21.53;;;2.00;99.90;;;;;;5038019;28;20211;-64
2021/12/05 05:00:30;;;;;;;32.93;22.07;;;2.00;99.90;;;;;;5037748;28;20255;-64
2021/12/05 05:02:56;;;;;;;28.60;22.13;;;2.00;99.90;;;;;;5033292;28;20294;-65
2021/12/05 05:05:23;;;;;;;31.27;21.27;;;2.00;99.90;;;;;;5036299;28;20197;-65
2021/12/05 05:07:49;;;;;;;28.43;21.40;;;2.00;99.90;;;;;;5041633;28;20244;-64
2021/12/05 05:10:25;;;;;;;31.80;20.63;;;2.00;99.90;;;;;;5045056;28;20209;-64
2021/12/05 05:12:51;;;;;;;28.97;21.33;;;2.10;99.90;;;;;;5028087;28;20560;-63
2021/12/05 05:15:23;;;;;;;30.83;21.57;;;2.10;99.90;;;;;;5033474;28;20240;-63
2021/12/05 05:17:53;;;;;;;32.70;23.17;;;2.10;99.90;;;;;;5045845;28;20737;-65
2021/12/05 05:20:39;;;;;;;31.50;21.00;;;2.20;99.90;;;;;;5033414;28;20477;-67
2021/12/05 05:28:58;;;;;;;32.90;22.03;;;2.30;99.90;;;;;;5057498;28;20238;-65
2021/12/05 05:44:42;;;;;;;29.67;20.70;;;2.40;99.90;;;;;;5033791;28;20187;-65
2021/12/05 05:49:49;;;;;;;28.03;21.10;;;2.40;99.90;;;;;;5030642;28;20185;-65
2021/12/05 05:52:17;;;;;;;29.27;20.53;;;2.40;99.90;;;;;;5029510;28;20288;-65
2021/12/05 05:54:46;;;;;;;30.20;21.03;;;2.50;99.90;;;;;;5033317;28;20189;-64
2021/12/05 05:57:22;;;;;;;32.47;21.10;;;2.40;99.90;;;;;;5037751;28;20305;-66
2021/12/05 06:00:03;;;;;;;27.70;20.77;;;2.40;99.90;;;;;;5035734;28;20187;-65
2021/12/05 06:05:15;;;;;;;31.50;22.03;;;2.20;99.90;;;;;;5036143;28;20194;-65
2021/12/05 06:07:43;;;;;;;31.57;22.23;;;2.10;99.90;;;;;;5043182;28;20355;-66
2021/12/05 06:10:12;;;;;;;36.97;24.50;;;2.10;99.90;;;;;;5032227;28;20181;-64
2021/12/05 06:12:38;;;;;;;29.13;21.67;;;2.10;99.90;;;;;;5034156;28;20208;-65
2021/12/05 06:15:06;;;;;;;33.63;23.27;;;2.10;99.90;;;;;;5030376;28;20210;-64
2021/12/05 06:17:31;;;;;;;31.33;23.40;;;2.00;99.90;;;;;;5038556;28;20207;-65
2021/12/05 06:19:58;;;;;;;30.47;22.13;;;2.00;99.90;;;;;;5035749;28;20644;-66
2021/12/05 06:22:24;;;;;;;33.43;23.17;;;2.00;99.90;;;;;;5032315;28;20230;-65
2021/12/05 06:24:50;;;;;;;33.00;23.50;;;2.00;99.90;;;;;;5031350;28;20199;-66
2021/12/05 06:27:15;;;;;;;35.73;25.67;;;2.00;99.90;;;;;;5038226;28;20733;-66
2021/12/05 06:29:48;;;;;;;42.80;26.13;;;1.90;99.90;;;;;;5033349;28;20188;-65
2021/12/05 06:40:13;;;;;;;38.87;24.17;;;1.80;99.90;;;;;;5034477;28;20277;-65
2021/12/05 06:48:20;;;;;;;41.33;27.47;;;1.90;99.90;;;;;;5028071;28;20277;-65
2021/12/05 06:50:45;;;;;;;40.30;24.90;;;1.90;99.90;;;;;;5043309;28;20195;-64
2021/12/05 06:53:11;;;;;;;44.30;27.67;;;1.90;99.90;;;;;;5027472;28;20214;-64
2021/12/05 06:55:36;;;;;;;39.83;25.83;;;1.80;99.90;;;;;;5046158;28;20206;-65
2021/12/05 06:58:02;;;;;;;39.43;26.07;;;1.80;99.90;;;;;;5032656;28;20249;-65
2021/12/05 07:00:29;;;;;;;36.77;25.63;;;1.70;99.90;;;;;;5033429;28;20213;-65
2021/12/05 07:02:54;;;;;;;38.20;27.63;;;1.70;99.90;;;;;;5039240;28;20221;-65
2021/12/05 07:08:05;;;;;;;49.33;28.77;;;1.70;99.90;;;;;;5038573;28;20297;-66
2021/12/05 07:10:37;;;;;;;39.67;25.87;;;1.60;99.90;;;;;;5040759;28;20189;-65
2021/12/05 07:13:36;;;;;;;38.07;25.93;;;1.70;99.90;;;;;;5024365;28;20279;-65
2021/12/05 07:15:56;;;;;;;44.63;26.93;;;1.70;99.90;;;;;;5031543;28;20211;-64
2021/12/05 07:26:28;;;;;;;40.40;26.07;;;1.60;99.90;;;;;;5029718;28;20197;-64
2021/12/05 07:42:41;;;;;;;44.70;28.60;;;1.70;99.90;;;;;;5026620;28;20695;-63
2021/12/05 07:45:13;;;;;;;40.50;25.57;;;1.70;99.90;;;;;;5029633;28;20179;-64
2021/12/05 07:47:43;;;;;;;39.93;26.00;;;1.70;99.90;;;;;;5029416;28;20216;-64
2021/12/05 07:50:11;;;;;;;46.10;29.57;;;1.70;99.90;;;;;;5029666;28;20273;-64
2021/12/05 07:52:42;;;;;;;44.67;27.07;;;1.80;99.90;;;;;;5025823;28;20203;-63
2021/12/05 07:55:21;;;;;;;42.60;27.57;;;1.80;99.90;;;;;;5030940;28;20182;-64
2021/12/05 08:16:52;;;;;;;44.00;26.77;;;1.60;99.90;;;;;;5027660;28;20200;-63
2021/12/05 08:19:18;;;;;;;47.27;27.77;;;1.60;99.90;;;;;;5033805;28;20513;-63
2021/12/05 08:21:45;;;;;;;47.70;29.67;;;1.50;99.90;;;;;;5033912;28;20272;-65
2021/12/05 08:24:11;;;;;;;52.90;28.20;;;1.60;99.90;;;;;;5030627;28;20193;-65
2021/12/05 08:26:36;;;;;;;50.93;28.93;;;1.70;99.90;;;;;;5032619;28;20272;-65
2021/12/05 08:34:09;;;;;;;47.80;29.97;;;1.80;99.90;;;;;;5031629;28;20191;-63
2021/12/05 08:37:06;;;;;;;54.27;31.27;;;1.90;99.90;;;;;;5030329;28;20217;-64
2021/12/05 08:39:58;;;;;;;45.30;29.50;;;1.90;99.90;;;;;;5029008;28;20551;-64
2021/12/05 09:31:04;;;;;;;44.57;27.50;;;2.30;99.90;;;;;;5034833;28;20207;-65
2021/12/05 09:38:38;;;;;;;45.07;28.50;;;2.40;99.90;;;;;;5030253;28;20202;-63
2021/12/05 10:06:59;;;;;;;46.10;27.80;;;2.80;99.90;;;;;;5033127;28;20263;-65
2021/12/05 10:12:43;;;;;;;43.83;28.47;;;2.80;99.90;;;;;;5031097;28;20229;-63
2021/12/05 10:18:30;;;;;;;40.87;26.73;;;2.70;99.90;;;;;;5038423;28;20285;-62
2021/12/05 10:37:22;;;;;;;47.70;29.97;;;2.70;99.90;;;;;;5036627;28;20175;-73
2021/12/05 10:40:21;;;;;;;45.20;28.53;;;2.80;99.90;;;;;;5038600;28;20194;-71
2021/12/05 10:42:53;;;;;;;46.90;28.53;;;3.10;99.90;;;;;;5035011;28;20245;-78
2021/12/05 10:45:33;;;;;;;44.17;27.37;;;3.30;99.90;;;;;;5030045;28;20210;-73
2021/12/05 10:48:05;;;;;;;41.90;25.87;;;3.40;99.90;;;;;;5029748;28;20322;-74
2021/12/05 10:50:39;;;;;;;48.30;26.17;;;3.50;99.90;;;;;;5030806;28;20720;-74
2021/12/05 10:53:26;;;;;;;42.87;26.73;;;3.70;99.90;;;;;;5039130;28;20190;-75
2021/12/05 10:55:57;;;;;;;39.40;26.13;;;3.90;99.90;;;;;;5032018;28;20215;-74
2021/12/05 10:58:28;;;;;;;45.97;27.57;;;3.90;99.90;;;;;;5046668;28;20244;-77
2021/12/05 11:01:16;;;;;;;42.53;26.50;;;3.70;99.90;;;;;;5028335;28;20665;-73
2021/12/05 11:03:44;;;;;;;44.00;28.03;;;3.60;99.90;;;;;;5035856;28;20195;-72
2021/12/05 11:06:31;;;;;;;42.00;27.90;;;3.50;99.90;;;;;;5034310;28;20187;-73
2021/12/05 11:09:06;;;;;;;43.23;28.13;;;3.40;99.90;;;;;;5036401;28;20605;-73
2021/12/05 11:11:33;;;;;;;41.83;27.57;;;3.30;99.90;;;;;;5033083;28;20218;-73
2021/12/05 11:14:02;;;;;;;45.90;28.47;;;3.30;99.90;;;;;;5036235;28;20309;-72
2021/12/05 11:16:41;;;;;;;41.00;26.77;;;3.30;99.90;;;;;;5028624;28;20191;-72
2021/12/05 11:19:14;;;;;;;52.90;27.77;;;3.20;99.90;;;;;;5030060;28;20698;-72
2021/12/05 11:21:47;;;;;;;47.53;27.03;;;3.10;99.90;;;;;;5030083;28;20198;-71
2021/12/05 11:24:20;;;;;;;41.67;27.00;;;3.10;99.90;;;;;;5034863;28;20195;-73
2021/12/05 11:27:05;;;;;;;43.37;27.13;;;3.10;99.90;;;;;;5027958;28;20768;-73
2021/12/05 11:29:49;;;;;;;41.73;27.17;;;3.30;99.90;;;;;;5029168;28;20187;-73
2021/12/05 11:32:37;;;;;;;45.67;27.60;;;3.30;99.90;;;;;;5035205;28;20183;-71
2021/12/05 11:35:22;;;;;;;43.53;28.37;;;3.20;99.90;;;;;;5031668;28;20244;-74
2021/12/05 11:37:51;;;;;;;39.87;24.80;;;3.10;99.90;;;;;;5036245;28;20209;-74
2021/12/05 11:40:17;;;;;;;44.13;27.80;;;3.00;99.90;;;;;;5029878;28;20191;-75
2021/12/05 11:43:03;;;;;;;45.70;27.20;;;2.90;99.90;;;;;;5035469;28;20186;-74
2021/12/05 11:45:31;;;;;;;48.90;28.77;;;2.90;99.90;;;;;;5037882;28;20504;-74
2021/12/05 11:47:58;;;;;;;41.80;26.67;;;2.90;99.90;;;;;;5038116;28;20206;-75
2021/12/05 11:50:35;;;;;;;41.10;26.53;;;2.90;99.90;;;;;;5038850;28;20589;-73
2021/12/05 11:53:00;;;;;;;48.07;27.17;;;2.90;99.90;;;;;;5037956;28;20178;-74
2021/12/05 11:55:31;;;;;;;39.63;26.93;;;2.90;99.90;;;;;;5041165;28;20203;-76
2021/12/05 11:57:58;;;;;;;47.37;26.63;;;3.00;99.90;;;;;;5031481;28;20758;-72
2021/12/05 12:00:26;;;;;;;39.70;26.97;;;3.00;99.90;;;;;;5037357;28;20206;-72
2021/12/05 12:02:52;;;;;;;41.30;27.30;;;3.00;99.90;;;;;;5035841;28;20680;-70
2021/12/05 12:05:20;;;;;;;39.73;25.93;;;3.10;99.90;;;;;;5036173;28;20294;-71
2021/12/05 12:07:52;;;;;;;43.73;26.33;;;3.00;99.90;;;;;;5030449;28;20296;-71
2021/12/05 12:10:32;;;;;;;39.13;26.13;;;3.00;99.90;;;;;;5041534;28;20649;-74
2021/12/05 12:13:05;;;;;;;49.90;29.00;;;2.80;99.90;;;;;;5040177;28;20198;-74
2021/12/05 12:15:32;;;;;;;45.50;27.73;;;2.80;99.90;;;;;;5040514;28;20222;-73
2021/12/05 12:18:10;;;;;;;45.93;27.80;;;2.80;99.90;;;;;;5053660;28;20954;-74
2021/12/05 12:20:39;;;;;;;44.57;27.57;;;2.80;99.90;;;;;;5037452;28;20651;-63
2021/12/05 12:23:04;;;;;;;47.47;30.57;;;2.70;99.90;;;;;;5056092;28;20207;-64
2021/12/05 12:25:34;;;;;;;54.80;29.60;;;2.60;99.90;;;;;;5034627;28;20197;-66
2021/12/05 12:28:00;;;;;;;53.27;32.37;;;2.50;99.90;;;;;;5040874;28;20579;-64
2021/12/05 12:30:29;;;;;;;51.57;31.17;;;2.50;99.90;;;;;;5036671;28;20292;-65
2021/12/05 12:33:02;;;;;;;48.47;29.13;;;2.50;99.90;;;;;;5033294;28;20729;-65
2021/12/05 12:35:32;;;;;;;48.03;29.53;;;2.40;99.90;;;;;;5036794;28;20170;-65
2021/12/05 12:38:08;;;;;;;48.57;30.63;;;2.40;99.90;;;;;;5036298;28;20209;-64
2021/12/05 12:40:58;;;;;;;46.57;31.53;;;2.40;99.90;;;;;;5033588;28;20233;-72
2021/12/05 12:43:40;;;;;;;50.40;29.63;;;2.40;99.90;;;;;;5028796;28;20199;-72
2021/12/05 12:46:23;;;;;;;51.27;30.97;;;2.30;99.90;;;;;;5039395;28;20193;-72
2021/12/05 12:48:56;;;;;;;49.27;29.00;;;2.30;99.90;;;;;;5029974;28;20209;-73
2021/12/05 12:51:38;;;;;;;50.83;29.97;;;2.40;99.90;;;;;;5033658;28;20177;-73
2021/12/05 12:54:08;;;;;;;55.50;31.20;;;2.40;99.90;;;;;;5034228;28;20245;-73
2021/12/05 12:56:34;;;;;;;56.07;29.63;;;2.40;99.90;;;;;;5036415;28;20324;-73
2021/12/05 12:59:13;;;;;;;50.00;29.87;;;2.40;99.90;;;;;;5036756;28;20196;-74
2021/12/05 13:05:03;;;;;;;48.57;29.23;;;2.40;99.90;;;;;;5030621;28;20206;-63
2021/12/05 13:10:01;;;;;;;50.60;30.20;;;2.40;99.90;;;;;;5016625;28;20310;-64
2021/12/05 13:10:42;;;;;;;54.23;31.47;;;2.50;99.90;;;;;;5026979;28;20301;-63
2021/12/05 13:13:23;;;;;;;50.07;31.10;;;2.60;99.90;;;;;;5033971;28;20199;-66
2021/12/05 13:16:08;;;;;;;52.63;30.67;;;2.60;99.90;;;;;;5026952;28;20248;-65
2021/12/05 13:18:35;;;;;;;58.77;33.77;;;2.50;99.90;;;;;;5024783;28;20584;-64
2021/12/05 13:21:16;;;;;;;52.70;31.53;;;2.50;99.90;;;;;;5060807;28;20231;-64
2021/12/05 13:23:50;;;;;;;58.43;33.30;;;2.50;99.90;;;;;;5027455;28;20218;-63
2021/12/05 13:26:27;;;;;;;55.43;34.03;;;2.40;99.90;;;;;;5026820;28;20231;-64
2021/12/05 13:28:56;;;;;;;49.43;31.33;;;2.40;99.90;;;;;;5034894;28;20257;-64
2021/12/05 13:31:28;;;;;;;52.80;32.83;;;2.40;99.90;;;;;;5054758;28;20281;-64
2021/12/05 13:34:18;;;;;;;51.83;32.00;;;2.50;99.90;;;;;;5036911;28;20662;-63
2021/12/05 13:37:13;;;;;;;51.77;29.20;;;2.50;99.90;;;;;;5052449;28;20268;-65
2021/12/05 13:39:47;;;;;;;47.20;30.47;;;2.60;99.90;;;;;;5027738;28;20213;-63
2021/12/05 13:42:17;;;;;;;50.57;30.63;;;2.70;99.90;;;;;;5028258;28;20203;-65
2021/12/05 13:45:06;;;;;;;45.10;29.57;;;2.70;99.90;;;;;;5036424;28;20175;-78
2021/12/05 13:47:53;;;;;;;50.40;31.10;;;2.70;99.90;;;;;;5035512;28;20231;-65
2021/12/05 13:50:18;;;;;;;48.93;31.17;;;2.60;99.90;;;;;;5045949;28;20194;-65
2021/12/05 13:52:45;;;;;;;52.27;31.87;;;2.60;99.90;;;;;;5035324;28;20273;-64
2021/12/05 13:55:46;;;;;;;47.90;31.67;;;2.50;99.90;;;;;;5034620;28;20606;-65
2021/12/05 14:01:22;;;;;;;51.00;32.73;;;2.30;99.90;;;;;;5030950;28;20747;-65
2021/12/05 14:03:50;;;;;;;45.30;29.27;;;2.30;99.90;;;;;;5031918;28;20203;-64
2021/12/05 14:06:36;;;;;;;51.63;31.07;;;2.30;99.90;;;;;;5037631;28;20587;-65
2021/12/05 14:09:27;;;;;;;43.13;29.17;;;2.30;99.90;;;;;;5033923;28;20437;-63
2021/12/05 14:11:55;;;;;;;51.97;31.13;;;2.30;99.90;;;;;;5034502;28;20186;-66
2021/12/05 14:14:35;;;;;;;49.00;30.50;;;2.30;99.90;;;;;;5033563;28;20300;-64
2021/12/05 14:17:07;;;;;;;47.83;28.90;;;2.20;99.90;;;;;;5035576;28;20552;-66
2021/12/05 14:19:36;;;;;;;53.00;29.90;;;2.10;99.90;;;;;;5036360;28;20678;-66
2021/12/05 14:22:04;;;;;;;51.53;29.93;;;2.10;99.90;;;;;;5058357;28;20194;-65
2021/12/05 14:24:34;;;;;;;46.43;27.67;;;2.10;99.90;;;;;;5034529;28;20502;-73
2021/12/05 14:27:06;;;;;;;51.53;30.73;;;2.00;99.90;;;;;;5027901;28;20201;-74
2021/12/05 14:29:33;;;;;;;56.50;32.30;;;2.00;99.90;;;;;;5036736;28;20683;-73
2021/12/05 14:32:22;;;;;;;46.63;29.30;;;2.00;99.90;;;;;;5037701;28;20272;-74
2021/12/05 14:34:51;;;;;;;47.90;28.10;;;2.10;99.90;;;;;;5034418;28;20698;-72
2021/12/05 14:37:21;;;;;;;46.97;29.93;;;2.00;99.90;;;;;;5034193;28;20194;-73
2021/12/05 14:39:59;;;;;;;47.53;29.03;;;2.00;99.90;;;;;;5030722;28;20203;-72
2021/12/05 14:42:28;;;;;;;46.90;27.33;;;2.00;99.90;;;;;;5045504;28;20190;-74
2021/12/05 14:44:58;;;;;;;55.60;30.53;;;2.00;99.90;;;;;;5031833;28;20295;-75
2021/12/05 14:47:28;;;;;;;48.20;29.47;;;2.10;99.90;;;;;;5040701;28;20182;-73
2021/12/05 14:49:58;;;;;;;48.37;30.00;;;2.10;99.90;;;;;;5032855;28;20208;-74
2021/12/05 14:52:45;;;;;;;48.73;31.10;;;2.10;99.90;;;;;;5036437;28;20191;-72
2021/12/05 14:55:21;;;;;;;51.93;30.43;;;2.20;99.90;;;;;;5030805;28;20199;-77
2021/12/05 14:57:54;;;;;;;49.13;28.63;;;2.20;99.90;;;;;;5031004;28;20210;-74
2021/12/05 15:00:32;;;;;;;47.23;30.40;;;2.20;99.90;;;;;;5031738;28;20213;-73
2021/12/05 15:03:08;;;;;;;48.53;28.53;;;2.20;99.90;;;;;;5034853;28;20607;-72
2021/12/05 15:05:37;;;;;;;49.40;31.70;;;2.10;99.90;;;;;;5033964;28;20249;-73
2021/12/05 15:08:11;;;;;;;91.30;72.00;;;2.10;99.90;;;;;;5037522;28;20209;-73
2021/12/05 15:10:38;;;;;;;55.83;40.00;;;2.10;99.90;;;;;;5026480;28;20196;-73
2021/12/05 15:13:04;;;;;;;49.67;30.70;;;2.10;99.90;;;;;;5036093;28;20596;-72
2021/12/05 15:15:30;;;;;;;53.53;30.80;;;2.10;99.90;;;;;;5051898;28;20214;-72
2021/12/05 15:17:57;;;;;;;51.40;33.03;;;2.10;99.90;;;;;;5047156;28;20716;-64
2021/12/05 15:20:27;;;;;;;50.57;30.13;;;2.20;99.90;;;;;;5033355;28;20202;-73
2021/12/05 15:22:58;;;;;;;52.00;31.60;;;2.20;99.90;;;;;;5034210;28;20191;-65
2021/12/05 15:25:28;;;;;;;47.43;30.87;;;2.10;99.90;;;;;;5029112;28;20211;-66
2021/12/05 15:27:54;;;;;;;46.23;30.00;;;2.10;99.90;;;;;;5031539;28;20214;-65
2021/12/05 15:30:25;;;;;;;52.73;33.20;;;2.10;99.90;;;;;;5032682;28;20669;-64
2021/12/05 15:32:57;;;;;;;49.20;30.70;;;2.10;99.90;;;;;;5032749;28;20228;-66
2021/12/05 15:35:24;;;;;;;50.70;30.00;;;2.10;99.90;;;;;;5038288;28;20293;-66
2021/12/05 15:37:56;;;;;;;51.57;32.00;;;2.10;99.90;;;;;;5033380;28;20186;-68
2021/12/05 15:40:24;;;;;;;56.33;32.50;;;2.00;99.90;;;;;;5029035;28;20831;-65
2021/12/05 15:42:50;;;;;;;54.33;33.47;;;2.00;99.90;;;;;;5030004;28;20174;-66
2021/12/05 15:45:19;;;;;;;55.07;32.70;;;1.90;99.90;;;;;;5032470;28;20206;-66
2021/12/05 15:47:46;;;;;;;54.57;33.87;;;1.90;99.90;;;;;;5032472;28;20636;-65
2021/12/05 15:50:30;;;;;;;52.67;31.23;;;1.90;99.90;;;;;;5030550;28;20192;-65
2021/12/05 15:53:00;;;;;;;53.83;32.43;;;1.90;99.90;;;;;;5034212;28;20272;-66
2021/12/05 15:55:38;;;;;;;61.23;32.13;;;1.90;99.90;;;;;;5031106;28;20698;-66
2021/12/05 15:58:08;;;;;;;56.23;32.30;;;1.90;99.90;;;;;;5034398;28;20211;-65
2021/12/05 16:00:41;;;;;;;56.30;32.57;;;1.90;99.90;;;;;;5031705;28;20562;-70
2021/12/05 16:03:11;;;;;;;55.63;32.53;;;1.90;99.90;;;;;;5032938;28;20715;-70
2021/12/05 16:05:39;;;;;;;61.03;32.57;;;1.90;99.90;;;;;;5028423;28;20743;-70
2021/12/05 16:08:13;;;;;;;55.07;31.00;;;1.90;99.90;;;;;;5033714;28;20291;-70
2021/12/05 16:10:43;;;;;;;50.77;29.77;;;1.90;99.90;;;;;;5032679;28;20194;-69
2021/12/05 16:13:13;;;;;;;56.27;32.20;;;2.00;99.90;;;;;;5028515;28;20198;-64
2021/12/05 16:15:44;;;;;;;56.77;33.20;;;2.00;99.90;;;;;;5030585;28;20222;-67
2021/12/05 16:18:11;;;;;;;54.60;32.20;;;2.00;99.90;;;;;;5032537;28;20181;-66
2021/12/05 16:20:40;;;;;;;53.10;30.33;;;1.90;99.90;;;;;;5034857;28;20197;-68
2021/12/05 16:23:24;;;;;;;48.90;29.33;;;1.90;99.90;;;;;;5036022;28;20706;-67
2021/12/05 16:26:04;;;;;;;56.43;32.23;;;2.00;99.90;;;;;;5031849;28;20975;-66
2021/12/05 16:28:37;;;;;;;57.07;31.60;;;1.90;99.90;;;;;;5033260;28;20890;-67
2021/12/05 16:31:19;;;;;;;58.07;31.77;;;1.90;99.90;;;;;;5033475;28;20256;-66
2021/12/05 16:33:51;;;;;;;56.93;32.37;;;1.90;99.90;;;;;;5035361;28;20738;-65
2021/12/05 16:36:19;;;;;;;59.97;32.17;;;1.80;99.90;;;;;;5034988;28;20179;-66
2021/12/05 16:38:47;;;;;;;57.53;32.93;;;1.80;99.90;;;;;;5036985;28;20191;-65
2021/12/05 16:41:24;;;;;;;61.03;33.37;;;1.80;99.90;;;;;;5033863;28;20209;-70
2021/12/05 16:44:04;;;;;;;62.17;33.53;;;1.80;99.90;;;;;;5036461;28;20317;-68
2021/12/05 16:46:38;;;;;;;60.03;33.73;;;1.80;99.90;;;;;;5037998;28;20186;-66
2021/12/05 16:49:07;;;;;;;61.33;34.40;;;1.80;99.90;;;;;;5035121;28;20213;-67
2021/12/05 16:51:42;;;;;;;65.40;35.20;;;1.80;99.90;;;;;;5035417;28;20185;-66
2021/12/05 16:54:21;;;;;;;62.67;33.07;;;1.80;99.90;;;;;;5029119;28;20181;-66
2021/12/05 16:56:58;;;;;;;68.00;37.00;;;1.70;99.90;;;;;;5035899;28;20202;-69
2021/12/05 16:59:29;;;;;;;60.70;33.87;;;1.70;99.90;;;;;;5032723;28;20201;-67
2021/12/05 17:02:27;;;;;;;65.77;33.60;;;1.80;99.90;;;;;;5036524;28;20179;-66
2021/12/05 17:05:00;;;;;;;65.47;35.77;;;1.80;99.90;;;;;;5032819;28;20207;-65
2021/12/05 17:07:42;;;;;;;63.33;35.00;;;1.80;99.90;;;;;;5038168;28;20217;-65
2021/12/05 17:10:12;;;;;;;64.07;34.80;;;1.90;99.90;;;;;;5034270;28;20689;-65
2021/12/05 17:12:38;;;;;;;61.97;34.73;;;1.90;99.90;;;;;;5040233;28;20181;-65
2021/12/05 17:15:16;;;;;;;67.70;34.80;;;1.80;99.90;;;;;;5035804;28;20246;-64
2021/12/05 17:17:46;;;;;;;62.80;34.77;;;1.80;99.90;;;;;;5039771;28;20243;-64
2021/12/05 17:20:26;;;;;;;63.23;35.60;;;1.80;99.90;;;;;;5035404;28;20217;-64
2021/12/05 17:22:52;;;;;;;69.80;36.53;;;1.80;99.90;;;;;;5037834;28;20716;-64
2021/12/05 17:25:40;;;;;;;70.90;34.53;;;1.80;99.90;;;;;;5036482;28;20231;-64
2021/12/05 17:28:10;;;;;;;60.53;35.80;;;1.80;99.90;;;;;;5038202;28;20231;-64
2021/12/05 17:30:36;;;;;;;70.13;33.77;;;1.70;99.90;;;;;;5044301;28;20291;-64
2021/12/05 17:33:02;;;;;;;76.33;36.80;;;1.80;99.90;;;;;;5056056;28;20240;-64
2021/12/05 17:35:29;;;;;;;78.73;39.50;;;1.80;99.90;;;;;;5041379;28;20203;-64
2021/12/05 17:37:56;;;;;;;78.30;37.90;;;1.80;99.90;;;;;;5058568;28;20281;-64
2021/12/05 17:40:22;;;;;;;70.13;37.30;;;1.80;99.90;;;;;;5036036;28;20237;-64
2021/12/05 17:42:47;;;;;;;70.80;38.30;;;1.80;99.90;;;;;;5046335;28;20200;-65
2021/12/05 17:45:15;;;;;;;69.40;38.70;;;1.80;99.90;;;;;;5040895;28;20218;-65